createdAt,value
2018-01-15T00:01:31.109Z,81.30
2018-01-15T00:03:57.390Z,81.60
2018-01-15T00:06:23.721Z,81.50
2018-01-15T00:08:50.048Z,81.10
2018-01-15T00:11:16.310Z,80.80
2018-01-15T00:13:42.602Z,81.00
2018-01-15T00:16:08.939Z,81.10
2018-01-15T00:18:36.252Z,81.20
2018-01-15T00:21:02.554Z,81.40
2018-01-15T00:23:28.806Z,81.30
2018-01-15T00:25:55.484Z,81.80
2018-01-15T00:28:23.745Z,81.30
2018-01-15T00:30:50.003Z,80.80
2018-01-15T00:33:16.278Z,81.10
2018-01-15T00:35:42.592Z,81.50
2018-01-15T00:38:08.860Z,80.40
2018-01-15T00:40:35.143Z,80.60
2018-01-15T00:43:02.253Z,82.20
2018-01-15T00:45:28.531Z,81.30
2018-01-15T00:47:54.812Z,80.80
2018-01-15T00:50:21.846Z,82.20
2018-01-15T00:52:48.878Z,81.60
2018-01-15T00:55:15.150Z,81.70
2018-01-15T00:57:41.518Z,81.30
2018-01-15T01:00:08.521Z,82.00
2018-01-15T01:02:34.843Z,81.10
2018-01-15T01:05:01.130Z,81.10
2018-01-15T01:07:27.430Z,81.20
2018-01-15T01:09:53.702Z,81.40
2018-01-15T01:12:20.007Z,80.80
2018-01-15T01:14:46.306Z,82.80
2018-01-15T01:17:12.583Z,80.90
2018-01-15T01:19:38.884Z,80.80
2018-01-15T01:22:05.234Z,80.90
2018-01-15T01:24:31.522Z,81.40
2018-01-15T01:26:59.462Z,81.70
2018-01-15T01:29:27.283Z,81.80
2018-01-15T01:31:53.590Z,82.10
2018-01-15T01:34:19.898Z,82.20
2018-01-15T01:36:46.187Z,81.40
2018-01-15T01:39:12.449Z,81.80
2018-01-15T01:41:38.738Z,81.80
2018-01-15T01:44:05.018Z,82.00
2018-01-15T01:46:31.306Z,80.80
2018-01-15T01:48:57.643Z,81.40
2018-01-15T01:51:24.650Z,82.20
2018-01-15T01:53:50.923Z,81.40
2018-01-15T01:56:17.203Z,82.30
2018-01-15T01:58:44.242Z,82.60
2018-01-15T02:01:10.520Z,82.10
2018-01-15T02:03:36.875Z,81.90
2018-01-15T02:06:03.167Z,81.40
2018-01-15T02:08:29.495Z,81.70
2018-01-15T02:10:56.537Z,82.30
2018-01-15T02:13:22.871Z,82.10
2018-01-15T02:15:49.129Z,82.30
2018-01-15T02:18:15.430Z,81.80
2018-01-15T02:20:41.689Z,82.50
2018-01-15T02:23:08.711Z,82.90
2018-01-15T02:25:35.046Z,82.60
2018-01-15T02:28:01.344Z,82.00
2018-01-15T02:30:28.363Z,82.80
2018-01-15T02:32:55.450Z,81.80
2018-01-15T02:35:21.763Z,81.80
2018-01-15T02:37:48.066Z,81.30
2018-01-15T02:40:14.394Z,81.60
2018-01-15T02:42:41.427Z,82.20
2018-01-15T02:45:07.714Z,81.80
2018-01-15T02:47:34.761Z,82.00
2018-01-15T02:50:01.023Z,81.60
2018-01-15T02:52:27.282Z,81.70
2018-01-15T02:54:54.591Z,82.10
2018-01-15T02:57:20.878Z,81.60
2018-01-15T02:59:47.591Z,82.10
2018-01-15T03:02:13.919Z,82.20
2018-01-15T03:04:40.182Z,82.00
2018-01-15T03:07:07.187Z,82.20
2018-01-15T03:09:33.470Z,81.90
2018-01-15T03:11:59.748Z,81.50
2018-01-15T03:14:26.747Z,81.60
2018-01-15T03:16:53.047Z,80.80
2018-01-15T03:19:19.321Z,80.80
2018-01-15T03:21:45.613Z,80.20
2018-01-15T03:24:12.644Z,80.00
2018-01-15T03:26:39.732Z,80.40
2018-01-15T03:29:06.019Z,80.60
2018-01-15T03:31:32.311Z,80.10
2018-01-15T03:33:59.323Z,80.80
2018-01-15T03:36:25.578Z,80.40
2018-01-15T03:38:51.899Z,80.80
2018-01-15T03:41:18.223Z,81.10
2018-01-15T03:43:44.495Z,81.60
2018-01-15T03:46:10.789Z,81.00
2018-01-15T03:48:37.045Z,81.50
2018-01-15T03:51:03.342Z,81.50
2018-01-15T03:53:29.653Z,81.80
2018-01-15T03:55:55.914Z,81.70
2018-01-15T03:58:22.192Z,81.50
2018-01-15T04:00:49.273Z,82.10
2018-01-15T04:03:15.541Z,81.40
2018-01-15T04:05:42.560Z,82.30
2018-01-15T04:08:08.870Z,81.60
2018-01-15T04:10:35.135Z,81.50
2018-01-15T04:13:01.399Z,81.00
2018-01-15T04:15:27.703Z,81.50
2018-01-15T04:17:53.961Z,81.50
2018-01-15T04:20:20.995Z,81.90
2018-01-15T04:22:48.029Z,81.60
2018-01-15T04:25:15.064Z,81.60
2018-01-15T04:27:41.333Z,80.60
2018-01-15T04:30:07.662Z,80.80
2018-01-15T04:32:33.933Z,80.60
2018-01-15T04:35:00.225Z,80.60
2018-01-15T04:37:26.519Z,80.90
2018-01-15T04:39:52.790Z,81.20
2018-01-15T04:42:19.074Z,81.40
2018-01-15T04:44:45.374Z,81.90
2018-01-15T04:47:12.430Z,81.90
2018-01-15T04:49:38.789Z,81.70
2018-01-15T04:52:05.078Z,81.20
2018-01-15T04:54:31.323Z,81.90
2018-01-15T04:56:57.601Z,81.90
2018-01-15T04:59:28.764Z,81.40
2018-01-15T05:01:57.352Z,82.00
2018-01-15T05:04:25.944Z,81.00
2018-01-15T05:06:54.687Z,82.10
2018-01-15T05:09:20.989Z,81.80
2018-01-15T05:11:47.292Z,82.10
2018-01-15T05:14:13.596Z,81.80
2018-01-15T05:16:39.882Z,81.50
2018-01-15T05:19:06.219Z,81.40
2018-01-15T05:21:32.545Z,81.30
2018-01-15T05:23:58.827Z,82.00
2018-01-15T05:26:25.116Z,81.10
2018-01-15T05:28:51.393Z,81.10
2018-01-15T05:31:17.660Z,81.90
2018-01-15T05:33:43.969Z,81.50
2018-01-15T05:36:11.071Z,82.60
2018-01-15T05:38:37.415Z,81.70
2018-01-15T05:41:03.895Z,81.90
2018-01-15T05:43:30.352Z,81.60
2018-01-15T05:45:56.680Z,81.40
2018-01-15T05:48:23.746Z,82.60
2018-01-15T05:50:50.082Z,82.00
2018-01-15T05:53:16.436Z,82.30
2018-01-15T05:55:42.768Z,81.90
2018-01-15T05:58:09.893Z,82.20
2018-01-15T06:00:37.018Z,81.50
2018-01-15T06:03:03.314Z,82.00
2018-01-15T06:05:29.663Z,82.00
2018-01-15T06:07:56.691Z,81.90
2018-01-15T06:10:23.719Z,82.30
2018-01-15T06:12:50.056Z,82.00
2018-01-15T06:15:17.096Z,82.50
2018-01-15T06:17:43.371Z,82.30
2018-01-15T06:20:09.789Z,82.50
2018-01-15T06:22:36.908Z,82.20
2018-01-15T06:25:03.212Z,82.00
2018-01-15T06:27:29.501Z,82.50
2018-01-15T06:29:55.790Z,82.50
2018-01-15T06:32:22.818Z,82.70
2018-01-15T06:34:49.101Z,82.60
2018-01-15T06:37:15.407Z,82.20
2018-01-15T06:39:41.717Z,82.30
2018-01-15T06:42:08.032Z,82.70
2018-01-15T06:44:34.315Z,81.90
2018-01-15T06:47:00.579Z,82.00
2018-01-15T06:49:26.862Z,82.20
2018-01-15T06:51:53.129Z,81.90
2018-01-15T06:54:19.392Z,82.20
2018-01-15T06:56:45.681Z,82.50
2018-01-15T06:59:11.956Z,82.30
2018-01-15T07:01:40.821Z,82.70
2018-01-15T07:04:07.182Z,81.90
2018-01-15T07:06:33.492Z,81.30
2018-01-15T07:08:59.771Z,82.80
2018-01-15T07:11:26.077Z,82.40
2018-01-15T07:13:52.348Z,82.30
2018-01-15T07:16:19.386Z,82.20
2018-01-15T07:18:45.680Z,82.30
2018-01-15T07:21:12.081Z,81.90
2018-01-15T07:23:38.383Z,81.90
2018-01-15T07:26:04.690Z,81.80
2018-01-15T07:28:30.970Z,81.40
2018-01-15T07:30:57.238Z,81.60
2018-01-15T07:33:23.785Z,82.70
2018-01-15T07:35:50.040Z,81.90
2018-01-15T07:38:16.332Z,81.50
2018-01-15T07:40:42.620Z,81.80
2018-01-15T07:43:08.897Z,81.80
2018-01-15T07:45:35.183Z,81.60
2018-01-15T07:48:01.487Z,82.00
2018-01-15T07:50:28.510Z,82.40
2018-01-15T07:52:54.781Z,81.80
2018-01-15T07:55:21.122Z,81.90
2018-01-15T07:57:47.491Z,82.00
2018-01-15T08:00:13.816Z,81.40
2018-01-15T08:02:40.154Z,81.10
2018-01-15T08:05:06.473Z,81.70
2018-01-15T08:07:32.799Z,81.30
2018-01-15T08:09:59.146Z,81.10
2018-01-15T08:12:26.193Z,81.80
2018-01-15T08:14:52.453Z,81.70
2018-01-15T08:17:18.790Z,81.40
2018-01-15T08:19:45.132Z,81.40
2018-01-15T08:22:11.997Z,80.90
2018-01-15T08:24:39.085Z,81.00
2018-01-15T08:27:05.389Z,80.80
2018-01-15T08:29:32.297Z,80.30
2018-01-15T08:31:58.622Z,80.00
2018-01-15T08:34:24.906Z,79.80
2018-01-15T08:36:51.266Z,80.60
2018-01-15T08:39:17.541Z,80.50
2018-01-15T08:41:43.796Z,81.50
2018-01-15T08:44:10.818Z,81.30
2018-01-15T08:46:37.415Z,81.30
2018-01-15T08:49:03.699Z,80.90
2018-01-15T08:51:30.146Z,81.10
2018-01-15T08:53:56.978Z,81.40
2018-01-15T08:56:23.353Z,81.70
2018-01-15T08:58:50.414Z,81.50
2018-01-15T09:01:16.761Z,80.60
2018-01-15T09:03:43.039Z,80.50
2018-01-15T09:06:09.334Z,81.20
2018-01-15T09:08:35.653Z,81.20
2018-01-15T09:11:02.466Z,81.60
2018-01-15T09:13:29.207Z,81.60
2018-01-15T09:15:55.541Z,81.20
2018-01-15T09:18:22.277Z,81.10
2018-01-15T09:20:49.433Z,81.00
2018-01-15T09:23:15.756Z,80.50
2018-01-15T09:25:42.129Z,81.00
2018-01-15T09:28:08.416Z,81.10
2018-01-15T09:30:35.602Z,81.10
2018-01-15T09:33:01.890Z,80.80
2018-01-15T09:35:28.202Z,81.30
2018-01-15T09:37:54.571Z,80.90
2018-01-15T09:40:20.903Z,81.50
2018-01-15T09:42:47.168Z,82.30
2018-01-15T09:45:13.476Z,81.60
2018-01-15T09:47:39.773Z,81.00
2018-01-15T09:50:06.355Z,81.00
2018-01-15T09:52:32.766Z,80.60
2018-01-15T09:54:59.036Z,80.90
2018-01-15T09:57:25.333Z,81.80
2018-01-15T09:59:52.398Z,80.80
2018-01-15T10:02:18.940Z,80.30
2018-01-15T10:04:45.222Z,80.60
2018-01-15T10:07:11.573Z,81.10
2018-01-15T10:09:37.884Z,80.70
2018-01-15T10:12:04.178Z,80.80
2018-01-15T10:14:31.031Z,80.10
2018-01-15T10:16:57.298Z,80.00
2018-01-15T10:19:24.325Z,80.60
2018-01-15T10:21:51.523Z,80.70
2018-01-15T10:24:17.812Z,79.90
2018-01-15T10:26:44.104Z,79.90
2018-01-15T10:29:11.205Z,80.60
2018-01-15T10:31:37.493Z,80.20
2018-01-15T10:34:03.781Z,79.80
2018-01-15T10:36:30.845Z,79.30
2018-01-15T10:38:57.290Z,79.00
2018-01-15T10:41:24.445Z,79.40
2018-01-15T10:43:50.759Z,79.60
2018-01-15T10:46:17.931Z,79.50
2018-01-15T10:48:44.740Z,79.20
2018-01-15T10:51:11.030Z,79.30
2018-01-15T10:53:37.447Z,78.50
2018-01-15T10:56:08.147Z,79.50
2018-01-15T10:58:38.774Z,79.30
2018-01-15T11:01:11.297Z,79.00
2018-01-15T11:03:38.082Z,78.50
2018-01-15T11:06:05.470Z,79.70
2018-01-15T11:08:31.810Z,79.10
2018-01-15T11:10:58.178Z,78.70
2018-01-15T11:13:48.020Z,79.20
2018-01-15T11:16:21.566Z,79.80
2018-01-15T11:18:47.910Z,79.90
2018-01-15T11:21:14.412Z,80.00
2018-01-15T11:23:41.205Z,79.90
2018-01-15T11:26:08.242Z,80.30
2018-01-15T11:31:09.770Z,81.10
2018-01-15T11:33:36.059Z,80.40
2018-01-15T11:36:02.707Z,80.40
2018-01-15T11:38:29.022Z,79.80
2018-01-15T11:40:55.863Z,79.10
2018-01-15T11:43:22.584Z,78.90
2018-01-15T11:45:49.006Z,78.70
2018-01-15T11:48:15.509Z,79.70
2018-01-15T11:50:41.766Z,79.70
2018-01-15T11:53:16.970Z,80.10
2018-01-15T11:55:43.488Z,79.80
2018-01-15T11:58:16.249Z,79.20
2018-01-15T12:00:42.565Z,79.20
2018-01-15T12:03:26.312Z,79.60
2018-01-15T12:05:52.621Z,79.70
2018-01-15T12:08:18.910Z,79.30
2018-01-15T12:10:45.510Z,79.20
2018-01-15T12:13:12.593Z,78.90
2018-01-15T12:15:38.853Z,79.30
2018-01-15T12:18:05.901Z,80.60
2018-01-15T12:20:34.793Z,79.70
2018-01-15T12:23:01.201Z,78.60
2018-01-15T12:25:27.456Z,78.40
2018-01-15T12:27:54.556Z,79.00
2018-01-15T12:30:20.833Z,78.20
2018-01-15T12:32:47.174Z,78.60
2018-01-15T12:35:13.485Z,79.00
2018-01-15T12:37:43.174Z,78.40
2018-01-15T12:40:09.533Z,78.70
2018-01-15T12:42:36.596Z,78.70
2018-01-15T12:45:02.892Z,77.30
2018-01-15T12:47:29.232Z,76.70
2018-01-15T12:49:55.572Z,76.90
2018-01-15T12:52:22.625Z,77.50
2018-01-15T12:54:48.940Z,77.10
2018-01-15T12:57:15.209Z,77.00
2018-01-15T12:59:41.473Z,76.60
2018-01-15T13:02:07.761Z,77.10
2018-01-15T13:04:34.774Z,77.30
2018-01-15T13:07:01.093Z,76.90
2018-01-15T13:09:27.401Z,76.70
2018-01-15T13:11:53.669Z,77.00
2018-01-15T13:14:19.945Z,77.00
2018-01-15T13:16:53.780Z,76.90
2018-01-15T13:19:25.417Z,77.60
2018-01-15T13:21:55.793Z,78.20
2018-01-15T13:24:22.121Z,77.10
2018-01-15T13:26:48.417Z,76.70
2018-01-15T13:29:15.514Z,76.90
2018-01-15T13:31:41.817Z,76.40
2018-01-15T13:34:08.093Z,76.80
2018-01-15T13:36:34.433Z,76.60
2018-01-15T13:39:00.835Z,77.10
2018-01-15T13:41:28.095Z,76.40
2018-01-15T13:43:54.733Z,76.40
2018-01-15T13:46:21.018Z,76.00
2018-01-15T13:48:48.298Z,76.90
2018-01-15T13:51:14.783Z,75.60
2018-01-15T13:53:42.034Z,76.70
2018-01-15T13:56:08.545Z,76.10
2018-01-15T13:58:35.198Z,75.90
2018-01-15T14:01:01.886Z,75.70
2018-01-15T14:03:28.793Z,75.30
2018-01-15T14:05:55.138Z,75.80
2018-01-15T14:08:22.230Z,76.60
2018-01-15T14:10:48.489Z,75.70
2018-01-15T14:13:14.794Z,75.90
2018-01-15T14:15:41.812Z,76.80
2018-01-15T14:18:08.804Z,76.90
2018-01-15T14:20:35.130Z,76.50
2018-01-15T14:23:01.465Z,77.10
2018-01-15T14:25:28.262Z,76.40
2018-01-15T14:27:54.563Z,77.50
2018-01-15T14:30:20.825Z,76.50
2018-01-15T14:32:47.107Z,76.60
2018-01-15T14:35:13.426Z,76.50
2018-01-15T14:37:39.728Z,77.30
2018-01-15T14:40:06.079Z,76.00
2018-01-15T14:42:32.346Z,76.20
2018-01-15T14:44:58.684Z,76.50
2018-01-15T14:47:24.960Z,76.20
2018-01-15T14:49:51.990Z,76.30
2018-01-15T14:52:19.074Z,77.10
2018-01-15T14:54:45.395Z,77.30
2018-01-15T14:57:11.706Z,76.60
2018-01-15T14:59:38.024Z,77.20
2018-01-15T15:02:04.315Z,77.00
2018-01-15T15:04:30.879Z,76.00
2018-01-15T15:06:57.200Z,75.90
2018-01-15T15:09:23.519Z,76.10
2018-01-15T15:11:49.817Z,75.90
2018-01-15T15:14:18.820Z,75.90
2018-01-15T15:16:47.255Z,76.80
2018-01-15T15:19:13.554Z,75.50
2018-01-15T15:21:39.875Z,76.10
2018-01-15T15:24:06.309Z,75.50
2018-01-15T15:26:32.817Z,75.20
2018-01-15T15:28:59.147Z,75.70
2018-01-15T15:31:25.551Z,75.50
2018-01-15T15:33:51.994Z,75.50
2018-01-15T15:36:18.250Z,75.00
2018-01-15T15:38:44.610Z,75.30
2018-01-15T15:41:10.990Z,76.10
2018-01-15T15:43:37.309Z,75.30
2018-01-15T15:46:03.623Z,75.60
2018-01-15T15:48:29.953Z,76.70
2018-01-15T15:50:56.237Z,77.20
2018-01-15T15:53:22.550Z,77.20
2018-01-15T15:55:49.641Z,79.30
2018-01-15T15:58:15.949Z,78.80
2018-01-15T16:00:42.254Z,79.30
2018-01-15T16:03:08.604Z,80.20
2018-01-15T16:05:38.899Z,80.30
2018-01-15T16:08:06.445Z,81.30
2018-01-15T16:10:32.787Z,80.10
2018-01-15T16:12:59.041Z,81.10
2018-01-15T16:15:25.337Z,80.60
2018-01-15T16:17:52.515Z,80.80
2018-01-15T16:20:18.917Z,80.30
2018-01-15T16:22:57.560Z,80.80
2018-01-15T16:25:23.984Z,81.00
2018-01-15T16:27:50.253Z,80.80
2018-01-15T16:30:16.556Z,80.90
2018-01-15T16:32:43.000Z,80.10
2018-01-15T16:35:09.425Z,80.40
2018-01-15T16:37:36.714Z,80.40
2018-01-15T16:40:03.110Z,80.50
2018-01-15T16:42:29.578Z,80.30
2018-01-15T16:44:59.468Z,80.70
2018-01-15T16:47:25.861Z,81.20
2018-01-15T16:49:52.151Z,80.60
2018-01-15T16:52:18.885Z,80.50
2018-01-15T16:54:45.245Z,80.50
2018-01-15T16:57:11.635Z,80.70
2018-01-15T16:59:38.322Z,80.80
2018-01-15T17:04:31.917Z,81.50
2018-01-15T17:06:58.342Z,81.00
2018-01-15T17:09:24.658Z,80.90
2018-01-15T17:11:51.957Z,81.60
2018-01-15T17:14:18.564Z,81.00
2018-01-15T17:16:44.874Z,80.80
2018-01-15T17:19:11.468Z,81.20
2018-01-15T17:21:38.055Z,81.00
2018-01-15T17:24:04.653Z,81.40
2018-01-15T17:26:31.271Z,81.60
2018-01-15T17:28:57.799Z,80.90
2018-01-15T17:31:24.436Z,81.40
2018-01-15T17:33:50.745Z,80.90
2018-01-15T17:36:17.410Z,80.80
2018-01-15T17:38:44.406Z,82.20
2018-01-15T17:41:10.970Z,81.60
2018-01-15T17:43:38.105Z,82.50
2018-01-15T17:46:04.619Z,81.60
2018-01-15T17:48:35.760Z,83.10
2018-01-15T17:51:03.593Z,82.80
2018-01-15T17:53:30.774Z,82.20
2018-01-15T17:55:57.173Z,82.80
2018-01-15T17:58:24.103Z,82.40
2018-01-15T18:00:50.753Z,82.50
2018-01-15T18:03:17.312Z,82.70
2018-01-15T18:05:44.425Z,83.40
2018-01-15T18:08:10.756Z,83.00
2018-01-15T18:10:37.288Z,82.70
2018-01-15T18:13:04.061Z,82.70
2018-01-15T18:15:31.085Z,82.20
2018-01-15T18:18:01.280Z,81.70
2018-01-15T18:20:28.332Z,83.60
2018-01-15T18:22:55.571Z,82.60
2018-01-15T18:25:21.864Z,82.60
2018-01-15T18:27:48.469Z,83.20
2018-01-15T18:30:15.477Z,84.80
2018-01-15T18:32:41.923Z,84.00
2018-01-15T18:35:08.989Z,85.50
2018-01-15T18:37:35.271Z,85.50
2018-01-15T18:40:02.387Z,85.90
2018-01-15T18:42:28.705Z,85.60
2018-01-15T18:44:54.973Z,85.70
2018-01-15T18:47:21.298Z,86.40
2018-01-15T18:49:47.620Z,85.90
2018-01-15T18:55:25.984Z,86.10
2018-01-15T18:57:52.472Z,86.50
2018-01-15T19:00:18.786Z,87.20
2018-01-15T19:02:45.438Z,87.20
2018-01-15T19:05:11.709Z,87.40
2018-01-15T19:07:38.001Z,87.20
2018-01-15T19:10:04.326Z,87.60
2018-01-15T19:12:31.474Z,87.70
2018-01-15T19:14:57.752Z,87.20
2018-01-15T19:17:24.144Z,87.70
2018-01-15T19:19:50.493Z,87.60
2018-01-15T19:22:16.815Z,87.80
2018-01-15T19:24:43.138Z,87.50
2018-01-15T19:27:09.712Z,88.40
2018-01-15T19:29:36.023Z,87.00
2018-01-15T19:32:03.105Z,89.10
2018-01-15T19:34:29.426Z,88.40
2018-01-15T19:36:57.652Z,88.80
2018-01-15T19:39:24.018Z,89.80
2018-01-15T19:41:51.350Z,88.80
2018-01-15T19:44:23.972Z,89.50
2018-01-15T19:46:56.205Z,89.30
2018-01-15T19:49:29.403Z,90.30
2018-01-15T19:52:02.378Z,89.50
2018-01-15T19:54:35.824Z,89.50
2018-01-15T19:57:09.190Z,89.50
2018-01-15T19:59:42.345Z,89.70
2018-01-15T20:02:15.966Z,89.50
2018-01-15T20:04:48.339Z,90.00
2018-01-15T20:07:20.734Z,90.00
2018-01-15T20:09:54.168Z,90.20
2018-01-15T20:12:21.166Z,89.80
2018-01-15T20:14:47.611Z,90.00
2018-01-15T20:17:13.967Z,89.90
2018-01-15T20:19:51.795Z,90.30
2018-01-15T20:22:18.086Z,90.10
2018-01-15T20:24:44.353Z,90.50
2018-01-15T20:27:11.534Z,90.70
2018-01-15T20:29:38.002Z,90.50
2018-01-15T20:32:04.683Z,90.60
2018-01-15T20:34:30.945Z,90.80
2018-01-15T20:36:58.736Z,91.50
2018-01-15T20:39:26.923Z,91.30
2018-01-15T20:41:53.946Z,91.10
2018-01-15T20:44:20.309Z,91.30
2018-01-15T20:46:47.344Z,91.60
2018-01-15T20:49:14.362Z,91.20
2018-01-15T20:51:40.713Z,91.40
2018-01-15T20:54:10.852Z,91.60
2018-01-15T20:56:37.147Z,91.40
2018-01-15T20:59:03.486Z,91.40
2018-01-15T21:01:29.794Z,91.30
2018-01-15T21:03:58.055Z,91.20
2018-01-15T21:06:24.387Z,91.00
2018-01-15T21:08:50.673Z,91.20
2018-01-15T21:11:17.012Z,91.50
2018-01-15T21:13:43.855Z,91.20
2018-01-15T21:16:10.180Z,91.00
2018-01-15T21:18:36.495Z,91.00
2018-01-15T21:21:03.370Z,91.10
2018-01-15T21:23:29.982Z,91.20
2018-01-15T21:25:56.296Z,90.80
2018-01-15T21:28:22.682Z,90.60
2018-01-15T21:30:49.159Z,90.80
2018-01-15T21:33:15.705Z,90.70
2018-01-15T21:36:00.421Z,90.40
2018-01-15T21:38:37.570Z,90.90
2018-01-15T21:41:04.150Z,90.50
2018-01-15T21:43:30.516Z,90.60
2018-01-15T21:45:56.801Z,90.80
2018-01-15T21:48:23.110Z,90.90
2018-01-15T21:50:49.426Z,90.90
2018-01-15T21:53:15.693Z,91.20
2018-01-15T21:55:44.197Z,90.90
2018-01-15T21:58:13.569Z,91.20
2018-01-15T22:00:43.365Z,90.80
2018-01-15T22:18:44.091Z,91.80
2018-01-15T22:21:14.511Z,91.60
2018-01-15T22:23:42.986Z,90.90
2018-01-15T22:26:12.275Z,91.40
2018-01-15T22:28:41.184Z,91.40
2018-01-15T22:31:10.741Z,91.10
2018-01-15T22:33:38.506Z,90.80
2018-01-15T22:36:09.588Z,91.30
2018-01-15T22:38:38.176Z,90.60
2018-01-15T22:41:06.579Z,90.40
2018-01-15T22:43:36.016Z,90.50
2018-01-15T22:46:06.072Z,90.80
2018-01-15T22:48:36.213Z,90.50
2018-01-15T22:51:05.510Z,90.90
2018-01-15T22:53:33.518Z,90.50
2018-01-15T22:56:00.521Z,90.70
2018-01-15T22:58:30.846Z,90.40
2018-01-15T23:00:57.465Z,90.60
2018-01-15T23:03:23.798Z,90.10
2018-01-15T23:05:50.107Z,90.00
2018-01-15T23:08:17.318Z,90.60
2018-01-15T23:10:43.587Z,90.00
2018-01-15T23:13:11.939Z,89.50
2018-01-15T23:15:38.365Z,88.80
2018-01-15T23:18:04.738Z,88.90
2018-01-15T23:20:31.308Z,89.10
2018-01-15T23:22:57.621Z,88.50
2018-01-15T23:25:33.917Z,89.20
2018-01-15T23:28:06.390Z,88.50
2018-01-15T23:30:32.784Z,89.50
2018-01-15T23:33:00.030Z,88.80
2018-01-15T23:35:26.507Z,89.70
2018-01-15T23:38:03.958Z,90.00
2018-01-15T23:40:31.255Z,90.10
2018-01-15T23:42:57.634Z,89.60
2018-01-15T23:45:23.914Z,90.00
2018-01-15T23:47:50.205Z,89.70
2018-01-15T23:50:16.498Z,90.00
2018-01-15T23:52:42.785Z,89.90
2018-01-15T23:55:09.118Z,89.30
2018-01-15T23:57:35.390Z,89.50
